| time (UTC) | temp C | wind direction | speed KPH | gust KPH | rain 1hr cm | rain 24hr cm | rain mn cm | humidity % | barometer mb |
| 20260505102027 | 17 | 234 | 4.8 | 9.7 | 0.00 | 0.00 | 0.00 | 71 | 1007.9 |
| 20260505101526 | 17 | 179 | 1.6 | 4.8 | 0.00 | 0.00 | 0.00 | 72 | 1007.9 |
| 20260505101022 | 17 | 228 | 3.2 | 4.8 | 0.00 | 0.00 | 0.00 | 74 | 1008.1 |
| 20260505100519 | 17 | 169 | 0.0 | 0.0 | 0.00 | 0.00 | 0.00 | 74 | 1008.0 |
| 20260505100016 | 17 | 159 | 0.0 | 0.0 | 0.00 | 0.00 | 0.00 | 75 | 1007.9 |
| 20260505095512 | 17 | 156 | 0.0 | 0.0 | 0.00 | 0.00 | 0.00 | 76 | 1008.0 |
| 20260505095008 | 17 | 160 | 0.0 | 0.0 | 0.00 | 0.00 | 0.00 | 75 | 1008.0 |
| 20260505094505 | 17 | 156 | 0.0 | 1.6 | 0.00 | 0.00 | 0.00 | 73 | 1008.0 |
| 20260505094001 | 17 | 168 | 1.6 | 3.2 | 0.00 | 0.00 | 0.00 | 73 | 1008.1 |
| 20260505093457 | 18 | 166 | 1.6 | 1.6 | 0.00 | 0.00 | 0.00 | 70 | 1008.1 |
| 20260505092955 | 18 | 162 | 0.0 | 0.0 | 0.00 | 0.00 | 0.00 | 69 | 1008.3 |
| 20260505092453 | 18 | 158 | 0.0 | 0.0 | 0.00 | 0.00 | 0.00 | 68 | 1008.4 |
| 20260505091950 | 18 | 159 | 0.0 | 1.6 | 0.00 | 0.00 | 0.00 | 68 | 1008.1 |
| 20260505091447 | 18 | 152 | 0.0 | 1.6 | 0.00 | 0.00 | 0.00 | 67 | 1008.5 |
| 20260505090945 | 18 | 143 | 1.6 | 9.7 | 0.00 | 0.00 | 0.00 | 66 | 1008.6 |
| 20260505090443 | 18 | 114 | 1.6 | 4.8 | 0.00 | 0.00 | 0.00 | 66 | 1008.7 |
| 20260505085940 | 18 | 105 | 8.0 | 14.5 | 0.00 | 0.00 | 0.00 | 68 | 1008.5 |
| 20260505085438 | 18 | 154 | 1.6 | 9.7 | 0.00 | 0.00 | 0.00 | 69 | 1008.7 |
| 20260505084936 | 18 | 65 | 11.3 | 16.1 | 0.00 | 0.00 | 0.00 | 68 | 1009.2 |
| 20260505084434 | 18 | 57 | 20.9 | 25.7 | 0.00 | 0.00 | 0.00 | 67 | 1008.9 |
| 20260505083932 | 19 | 155 | 4.8 | 16.1 | 0.00 | 0.00 | 0.00 | 65 | 1007.9 |
| 20260505083429 | 19 | 294 | 11.3 | 20.9 | 0.00 | 0.00 | 0.00 | 65 | 1007.7 |
| 20260505082925 | 19 | 294 | 12.9 | 22.5 | 0.00 | 0.00 | 0.00 | 65 | 1007.6 |
| 20260505082421 | 19 | 288 | 16.1 | 22.5 | 0.00 | 0.00 | 0.00 | 65 | 1007.5 |
| 20260505081918 | 19 | 262 | 17.7 | 22.5 | 0.00 | 0.00 | 0.00 | 65 | 1007.4 |
| 20260505081415 | 19 | 245 | 12.9 | 24.1 | 0.00 | 0.00 | 0.00 | 65 | 1007.8 |
| 20260505080911 | 19 | 305 | 11.3 | 17.7 | 0.00 | 0.00 | 0.00 | 64 | 1007.7 |
| 20260505080408 | 19 | 303 | 14.5 | 20.9 | 0.00 | 0.00 | 0.00 | 64 | 1007.8 |
| 20260505075903 | 19 | 285 | 11.3 | 16.1 | 0.00 | 0.00 | 0.00 | 64 | 1008.0 |
| 20260505075400 | 19 | 304 | 9.7 | 16.1 | 0.00 | 0.00 | 0.00 | 64 | 1008.1 |
| 20260505074858 | 19 | 319 | 14.5 | 16.1 | 0.00 | 0.00 | 0.00 | 64 | 1007.9 |
| 20260505074355 | 19 | 286 | 11.3 | 22.5 | 0.00 | 0.00 | 0.00 | 64 | 1007.8 |
| 20260505073852 | 19 | 274 | 8.0 | 14.5 | 0.00 | 0.00 | 0.00 | 64 | 1007.9 |
| 20260505073349 | 19 | 309 | 11.3 | 20.9 | 0.00 | 0.00 | 0.00 | 64 | 1008.3 |
| 20260505072846 | 19 | 285 | 16.1 | 20.9 | 0.00 | 0.00 | 0.00 | 63 | 1007.9 |
| 20260505072342 | 19 | 297 | 12.9 | 17.7 | 0.00 | 0.00 | 0.00 | 63 | 1007.8 |
| 20260505071838 | 20 | 304 | 9.7 | 16.1 | 0.00 | 0.00 | 0.00 | 63 | 1007.8 |
| 20260505071335 | 20 | 290 | 12.9 | 22.5 | 0.00 | 0.00 | 0.00 | 62 | 1007.6 |
| 20260505070833 | 20 | 306 | 22.5 | 25.7 | 0.00 | 0.00 | 0.00 | 62 | 1007.7 |
| 20260505070329 | 20 | 278 | 14.5 | 22.5 | 0.00 | 0.00 | 0.00 | 62 | 1007.8 |
| 20260505065825 | 20 | 280 | 12.9 | 17.7 | 0.00 | 0.00 | 0.00 | 62 | 1007.7 |
| 20260505065322 | 20 | 272 | 17.7 | 25.7 | 0.00 | 0.00 | 0.00 | 61 | 1007.7 |
| 20260505064819 | 20 | 290 | 16.1 | 25.7 | 0.00 | 0.00 | 0.00 | 61 | 1007.7 |
| 20260505064316 | 20 | 293 | 17.7 | 24.1 | 0.00 | 0.00 | 0.00 | 61 | 1007.6 |
| 20260505063814 | 20 | 283 | 14.5 | 32.2 | 0.00 | 0.00 | 0.00 | 61 | 1007.4 |
| 20260505063310 | 20 | 293 | 16.1 | 27.4 | 0.00 | 0.00 | 0.00 | 61 | 1007.5 |
| 20260505062806 | 20 | 286 | 24.1 | 35.4 | 0.00 | 0.00 | 0.00 | 61 | 1007.3 |
| 20260505062304 | 20 | 280 | 14.5 | 22.5 | 0.00 | 0.00 | 0.00 | 61 | 1007.4 |
| 20260505061800 | 20 | 267 | 19.3 | 27.4 | 0.00 | 0.00 | 0.00 | 60 | 1007.4 |
| 20260505061258 | 20 | 297 | 14.5 | 27.4 | 0.00 | 0.00 | 0.00 | 60 | 1007.4 |
| 20260505060755 | 20 | 291 | 12.9 | 25.7 | 0.00 | 0.00 | 0.00 | 60 | 1007.3 |
| 20260505060253 | 20 | 280 | 19.3 | 29.0 | 0.00 | 0.00 | 0.00 | 60 | 1007.2 |
| 20260505055748 | 20 | 307 | 14.5 | 29.0 | 0.00 | 0.00 | 0.00 | 60 | 1007.5 |
| 20260505055244 | 20 | 307 | 19.3 | 32.2 | 0.00 | 0.00 | 0.00 | 59 | 1007.4 |
| 20260505054742 | 20 | 315 | 19.3 | 32.2 | 0.00 | 0.00 | 0.00 | 59 | 1007.3 |
| 20260505054239 | 21 | 288 | 12.9 | 27.4 | 0.00 | 0.00 | 0.00 | 60 | 1007.3 |
| 20260505053738 | 21 | 305 | 20.9 | 29.0 | 0.00 | 0.00 | 0.00 | 59 | 1007.3 |
| 20260505053234 | 21 | 268 | 24.1 | 29.0 | 0.00 | 0.00 | 0.00 | 59 | 1007.4 |
| 20260505052731 | 21 | 238 | 14.5 | 35.4 | 0.00 | 0.00 | 0.00 | 59 | 1007.0 |
| 20260505052228 | 21 | 287 | 24.1 | 32.2 | 0.00 | 0.00 | 0.00 | 59 | 1006.9 |
| 20260505051725 | 21 | 266 | 17.7 | 25.7 | 0.00 | 0.00 | 0.00 | 59 | 1007.1 |
| 20260505051223 | 21 | 296 | 24.1 | 41.8 | 0.00 | 0.00 | 0.00 | 59 | 1006.9 |
| 20260505050721 | 21 | 293 | 24.1 | 33.8 | 0.00 | 0.00 | 0.00 | 59 | 1006.8 |
| 20260505050219 | 21 | 299 | 27.4 | 33.8 | 0.00 | 0.00 | 0.00 | 59 | 1006.7 |
| 20260505041648 | 21 | 267 | 12.9 | 24.1 | 0.00 | 0.00 | 0.00 | 60 | 1007.1 |
| 20260505041146 | 20 | 247 | 16.1 | 25.7 | 0.00 | 0.00 | 0.00 | 59 | 1007.2 |
| 20260505040643 | 21 | 285 | 12.9 | 24.1 | 0.00 | 0.00 | 0.00 | 59 | 1007.2 |
| 20260505040140 | 20 | 271 | 17.7 | 20.9 | 0.00 | 0.00 | 0.00 | 60 | 1007.4 |
| 20260505035636 | 21 | 299 | 14.5 | 25.7 | 0.00 | 0.00 | 0.00 | 59 | 1007.3 |
| 20260505035132 | 21 | 281 | 12.9 | 17.7 | 0.00 | 0.00 | 0.00 | 59 | 1007.4 |
| 20260505034629 | 21 | 281 | 8.0 | 17.7 | 0.00 | 0.00 | 0.00 | 59 | 1007.1 |
| 20260505034126 | 21 | 292 | 11.3 | 16.1 | 0.00 | 0.00 | 0.00 | 59 | 1007.4 |
| 20260505033623 | 21 | 275 | 11.3 | 24.1 | 0.00 | 0.00 | 0.00 | 59 | 1007.6 |
| 20260505033121 | 21 | 269 | 9.7 | 17.7 | 0.00 | 0.00 | 0.00 | 58 | 1007.5 |
| 20260505032619 | 21 | 279 | 14.5 | 20.9 | 0.00 | 0.00 | 0.00 | 57 | 1007.6 |
| 20260505032115 | 21 | 271 | 12.9 | 17.7 | 0.00 | 0.00 | 0.00 | 56 | 1007.5 |
| 20260505031613 | 21 | 271 | 11.3 | 17.7 | 0.00 | 0.00 | 0.00 | 57 | 1007.5 |
| 20260505031108 | 21 | 251 | 14.5 | 17.7 | 0.00 | 0.00 | 0.00 | 56 | 1007.1 |
| 20260505030606 | 21 | 251 | 14.5 | 17.7 | 0.00 | 0.00 | 0.00 | 56 | 1007.1 |
| 20260505025557 | 21 | 299 | 14.5 | 20.9 | 0.00 | 0.00 | 0.00 | 57 | 1007.1 |
| 20260505025056 | 21 | 270 | 11.3 | 17.7 | 0.00 | 0.00 | 0.00 | 56 | 1007.0 |
| 20260505024548 | 21 | 299 | 17.7 | 24.1 | 0.00 | 0.00 | 0.00 | 55 | 1007.1 |
| 20260505024045 | 21 | 281 | 16.1 | 24.1 | 0.00 | 0.00 | 0.00 | 55 | 1006.6 |
| 20260505023542 | 22 | 302 | 17.7 | 25.7 | 0.00 | 0.00 | 0.00 | 55 | 1006.5 |
| 20260505023039 | 21 | 227 | 14.5 | 20.9 | 0.00 | 0.00 | 0.00 | 56 | 1006.5 |
| 20260505022536 | 21 | 250 | 12.9 | 22.5 | 0.00 | 0.00 | 0.00 | 55 | 1006.6 |
| 20260505022034 | 21 | 238 | 11.3 | 17.7 | 0.00 | 0.00 | 0.00 | 56 | 1006.7 |
| 20260505021530 | 21 | 263 | 12.9 | 22.5 | 0.00 | 0.00 | 0.00 | 55 | 1006.8 |
| 20260505021027 | 21 | 251 | 14.5 | 24.1 | 0.00 | 0.00 | 0.00 | 55 | 1006.8 |
| 20260505020526 | 22 | 287 | 14.5 | 17.7 | 0.00 | 0.00 | 0.00 | 55 | 1006.5 |
| 20260505020024 | 22 | 289 | 12.9 | 25.7 | 0.00 | 0.00 | 0.00 | 55 | 1006.7 |
| 20260505015521 | 22 | 277 | 14.5 | 20.9 | 0.00 | 0.00 | 0.00 | 54 | 1006.6 |
| 20260505015018 | 22 | 284 | 17.7 | 25.7 | 0.00 | 0.00 | 0.00 | 54 | 1006.3 |
| 20260505014515 | 22 | 278 | 12.9 | 24.1 | 0.00 | 0.00 | 0.00 | 54 | 1006.3 |
| 20260505014012 | 22 | 224 | 11.3 | 22.5 | 0.00 | 0.00 | 0.00 | 54 | 1006.5 |
| 20260505013509 | 22 | 251 | 17.7 | 24.1 | 0.00 | 0.00 | 0.00 | 54 | 1006.2 |
| 20260505013007 | 22 | 263 | 14.5 | 17.7 | 0.00 | 0.00 | 0.00 | 54 | 1006.2 |
| 20260505012504 | 22 | 308 | 17.7 | 22.5 | 0.00 | 0.00 | 0.00 | 53 | 1006.2 |
| 20260505012001 | 22 | 279 | 14.5 | 22.5 | 0.00 | 0.00 | 0.00 | 53 | 1006.1 |
| 20260505011456 | 22 | 288 | 17.7 | 24.1 | 0.00 | 0.00 | 0.00 | 53 | 1006.0 |
| 20260505010954 | 22 | 292 | 17.7 | 24.1 | 0.00 | 0.00 | 0.00 | 52 | 1005.8 |
| 20260505010449 | 22 | 291 | 17.7 | 24.1 | 0.00 | 0.00 | 0.00 | 52 | 1006.1 |
| 20260505005946 | 22 | 284 | 19.3 | 22.5 | 0.00 | 0.00 | 0.00 | 52 | 1006.0 |
| 20260505005443 | 23 | 278 | 14.5 | 27.4 | 0.00 | 0.00 | 0.00 | 51 | 1006.0 |
| 20260505004941 | 23 | 285 | 24.1 | 35.4 | 0.00 | 0.00 | 0.00 | 50 | 1005.8 |
| 20260505004437 | 23 | 292 | 11.3 | 17.7 | 0.00 | 0.00 | 0.00 | 52 | 1005.8 |
| 20260505003934 | 23 | 274 | 17.7 | 22.5 | 0.00 | 0.00 | 0.00 | 51 | 1005.8 |
| 20260505003431 | 23 | 278 | 12.9 | 17.7 | 0.00 | 0.00 | 0.00 | 51 | 1005.9 |
| 20260505002927 | 23 | 307 | 25.7 | 29.0 | 0.00 | 0.00 | 0.00 | 50 | 1005.9 |
| 20260505002424 | 23 | 284 | 14.5 | 24.1 | 0.00 | 0.00 | 0.00 | 50 | 1005.7 |
| 20260505001922 | 23 | 247 | 17.7 | 29.0 | 0.00 | 0.00 | 0.00 | 50 | 1005.7 |
| 20260505001419 | 23 | 258 | 14.5 | 22.5 | 0.00 | 0.00 | 0.00 | 50 | 1005.7 |
| 20260505000916 | 23 | 263 | 9.7 | 27.4 | 0.00 | 0.00 | 0.00 | 49 | 1005.7 |
| 20260505000414 | 23 | 295 | 17.7 | 24.1 | 0.00 | 0.00 | 0.00 | 49 | 1005.4 |
| 20260504235910 | 23 | 233 | 22.5 | 33.8 | 0.00 | 0.00 | 0.00 | 48 | 1005.6 |
| 20260504235408 | 23 | 280 | 14.5 | 25.7 | 0.00 | 0.00 | 0.00 | 49 | 1005.5 |
| 20260504234904 | 24 | 258 | 16.1 | 27.4 | 0.00 | 0.00 | 0.00 | 49 | 1005.4 |
| 20260504234402 | 24 | 291 | 17.7 | 29.0 | 0.00 | 0.00 | 0.00 | 48 | 1005.7 |
| 20260504233858 | 24 | 294 | 17.7 | 27.4 | 0.00 | 0.00 | 0.00 | 48 | 1005.7 |
| 20260504233354 | 24 | 279 | 20.9 | 24.1 | 0.00 | 0.00 | 0.00 | 47 | 1005.7 |
| 20260504232850 | 24 | 276 | 19.3 | 29.0 | 0.00 | 0.00 | 0.00 | 47 | 1005.9 |
| 20260504232348 | 24 | 272 | 25.7 | 35.4 | 0.00 | 0.00 | 0.00 | 46 | 1005.9 |
| 20260504231844 | 24 | 255 | 17.7 | 32.2 | 0.00 | 0.00 | 0.00 | 46 | 1006.2 |
| 20260504231341 | 24 | 299 | 25.7 | 32.2 | 0.00 | 0.00 | 0.00 | 46 | 1006.1 |
| 20260504230837 | 24 | 284 | 17.7 | 33.8 | 0.00 | 0.00 | 0.00 | 47 | 1006.0 |
| 20260504230335 | 25 | 275 | 19.3 | 20.9 | 0.00 | 0.00 | 0.00 | 47 | 1006.0 |
| 20260504225834 | 25 | 278 | 17.7 | 20.9 | 0.00 | 0.00 | 0.00 | 47 | 1006.1 |
| 20260504225330 | 25 | 273 | 17.7 | 20.9 | 0.00 | 0.00 | 0.00 | 47 | 1006.2 |
| 20260504224827 | 24 | 277 | 25.7 | 29.0 | 0.00 | 0.00 | 0.00 | 46 | 1006.1 |
| 20260504224324 | 24 | 273 | 12.9 | 20.9 | 0.00 | 0.00 | 0.00 | 47 | 1006.4 |
| 20260504223820 | 23 | 277 | 19.3 | 22.5 | 0.00 | 0.00 | 0.00 | 46 | 1006.2 |
| 20260504223316 | 23 | 328 | 14.5 | 17.7 | 0.00 | 0.00 | 0.00 | 49 | 1006.4 |
| 20260504222813 | 23 | 267 | 8.0 | 16.1 | 0.00 | 0.00 | 0.00 | 47 | 1006.2 |
| 20260504222310 | 23 | 258 | 6.4 | 16.1 | 0.00 | 0.00 | 0.00 | 49 | 1006.4 |
| 20260504221809 | 23 | 287 | 12.9 | 20.9 | 0.00 | 0.00 | 0.00 | 47 | 1006.5 |
| 20260504221305 | 23 | 233 | 11.3 | 20.9 | 0.00 | 0.00 | 0.00 | 47 | 1006.5 |
| 20260504220801 | 23 | 279 | 16.1 | 24.1 | 0.00 | 0.00 | 0.00 | 46 | 1006.5 |
| 20260504220258 | 23 | 272 | 19.3 | 27.4 | 0.00 | 0.00 | 0.00 | 46 | 1006.8 |
| 20260504215756 | 23 | 258 | 16.1 | 24.1 | 0.00 | 0.00 | 0.00 | 48 | 1006.8 |
| 20260504215252 | 23 | 262 | 14.5 | 17.7 | 0.00 | 0.00 | 0.00 | 49 | 1006.6 |
| 20260504214748 | 23 | 238 | 8.0 | 11.3 | 0.00 | 0.00 | 0.00 | 47 | 1006.4 |
| 20260504214244 | 23 | 246 | 11.3 | 12.9 | 0.00 | 0.00 | 0.00 | 47 | 1007.1 |
| 20260504213741 | 23 | 210 | 4.8 | 9.7 | 0.00 | 0.00 | 0.00 | 47 | 1006.9 |
| 20260504213238 | 23 | 201 | 4.8 | 4.8 | 0.00 | 0.00 | 0.00 | 45 | 1007.5 |
| 20260504212735 | 23 | 178 | 1.6 | 4.8 | 0.00 | 0.00 | 0.00 | 44 | 1008.1 |
| 20260504212231 | 23 | 304 | 9.7 | 11.3 | 0.00 | 0.00 | 0.00 | 44 | 1008.3 |
| 20260504211729 | 23 | 276 | 8.0 | 12.9 | 0.00 | 0.00 | 0.00 | 45 | 1008.5 |
| 20260504211225 | 23 | 273 | 12.9 | 16.1 | 0.00 | 0.00 | 0.00 | 43 | 1008.3 |
| 20260504210722 | 23 | 263 | 12.9 | 17.7 | 0.00 | 0.00 | 0.00 | 44 | 1008.5 |
| 20260504210220 | 23 | 297 | 14.5 | 20.9 | 0.00 | 0.00 | 0.00 | 43 | 1008.5 |
| 20260504205716 | 23 | 282 | 11.3 | 20.9 | 0.00 | 0.00 | 0.00 | 44 | 1008.7 |
| 20260504205214 | 23 | 283 | 16.1 | 17.7 | 0.00 | 0.00 | 0.00 | 43 | 1009.0 |
| 20260504204706 | 23 | 266 | 19.3 | 24.1 | 0.00 | 0.00 | 0.00 | 43 | 1008.9 |
| 20260504204205 | 23 | 283 | 11.3 | 14.5 | 0.00 | 0.00 | 0.00 | 43 | 1008.7 |
| 20260504203704 | 23 | 254 | 6.4 | 14.5 | 0.00 | 0.00 | 0.00 | 44 | 1008.8 |
| 20260504203201 | 23 | 260 | 6.4 | 17.7 | 0.00 | 0.00 | 0.00 | 45 | 1008.7 |
| 20260504202700 | 23 | 298 | 14.5 | 16.1 | 0.00 | 0.00 | 0.00 | 43 | 1008.8 |
| 20260504202158 | 23 | 289 | 19.3 | 20.9 | 0.00 | 0.00 | 0.00 | 43 | 1008.7 |
| 20260504201655 | 23 | 278 | 19.3 | 24.1 | 0.00 | 0.00 | 0.00 | 43 | 1008.6 |
| 20260504201152 | 23 | 278 | 12.9 | 25.7 | 0.00 | 0.00 | 0.00 | 44 | 1008.7 |
| 20260504200649 | 23 | 277 | 6.4 | 12.9 | 0.00 | 0.00 | 0.00 | 45 | 1008.8 |
| 20260504200146 | 23 | 272 | 11.3 | 20.9 | 0.00 | 0.00 | 0.00 | 44 | 1008.6 |
| 20260504195642 | 23 | 281 | 9.7 | 17.7 | 0.00 | 0.00 | 0.00 | 44 | 1008.5 |
| 20260504195138 | 23 | 280 | 9.7 | 17.7 | 0.00 | 0.00 | 0.00 | 43 | 1008.5 |
| 20260504194635 | 23 | 252 | 12.9 | 24.1 | 0.00 | 0.00 | 0.00 | 43 | 1008.3 |
| 20260504194131 | 24 | 300 | 17.7 | 27.4 | 0.00 | 0.00 | 0.00 | 43 | 1008.5 |
| 20260504193627 | 24 | 296 | 17.7 | 17.7 | 0.00 | 0.00 | 0.00 | 43 | 1008.6 |
| 20260504193126 | 24 | 258 | 16.1 | 24.1 | 0.00 | 0.00 | 0.00 | 44 | 1008.4 |
| 20260504192624 | 24 | 264 | 17.7 | 25.7 | 0.00 | 0.00 | 0.00 | 44 | 1008.4 |
| 20260504192121 | 24 | 291 | 17.7 | 24.1 | 0.00 | 0.00 | 0.00 | 46 | 1008.6 |
| 20260504191620 | 24 | 316 | 22.5 | 33.8 | 0.00 | 0.00 | 0.00 | 43 | 1008.3 |
| 20260504191115 | 24 | 316 | 22.5 | 33.8 | 0.00 | 0.00 | 0.00 | 43 | 1008.3 |
| 20260504190612 | 24 | 299 | 29.0 | 38.6 | 0.00 | 0.00 | 0.00 | 43 | 1008.1 |
| 20260504190108 | 25 | 328 | 20.9 | 32.2 | 0.00 | 0.00 | 0.00 | 45 | 1008.3 |
| 20260504185605 | 25 | 287 | 19.3 | 40.2 | 0.00 | 0.00 | 0.00 | 45 | 1007.9 |
| 20260504185101 | 25 | 260 | 24.1 | 35.4 | 0.00 | 0.00 | 0.00 | 44 | 1007.8 |
| 20260504184557 | 25 | 284 | 22.5 | 38.6 | 0.00 | 0.00 | 0.00 | 43 | 1007.5 |
| 20260504184052 | 25 | 286 | 20.9 | 41.8 | 0.00 | 0.00 | 0.00 | 43 | 1007.6 |
| 20260504183550 | 25 | 276 | 27.4 | 32.2 | 0.00 | 0.00 | 0.00 | 45 | 1007.6 |
| 20260504183048 | 25 | 287 | 32.2 | 40.2 | 0.00 | 0.00 | 0.00 | 45 | 1007.6 |
| 20260504182545 | 25 | 275 | 25.7 | 37.0 | 0.00 | 0.00 | 0.00 | 46 | 1007.8 |
| 20260504182042 | 24 | 277 | 8.0 | 22.5 | 0.00 | 0.00 | 0.00 | 51 | 1007.8 |
| 20260504181539 | 23 | 281 | 22.5 | 29.0 | 0.00 | 0.00 | 0.00 | 49 | 1008.3 |
| 20260504181037 | 23 | 269 | 11.3 | 20.9 | 0.00 | 0.00 | 0.00 | 53 | 1008.0 |
| 20260504180536 | 23 | 306 | 17.7 | 27.4 | 0.00 | 0.00 | 0.00 | 51 | 1008.3 |
| 20260504180034 | 23 | 301 | 19.3 | 22.5 | 0.00 | 0.00 | 0.00 | 51 | 1008.3 |
| 20260504175531 | 23 | 291 | 12.9 | 33.8 | 0.00 | 0.00 | 0.00 | 55 | 1008.6 |
| 20260504175028 | 23 | 221 | 9.7 | 20.9 | 0.00 | 0.00 | 0.00 | 57 | 1008.5 |
| 20260504174526 | 22 | 272 | 11.3 | 20.9 | 0.00 | 0.00 | 0.00 | 57 | 1008.7 |
| 20260504174022 | 22 | 283 | 11.3 | 14.5 | 0.00 | 0.00 | 0.00 | 56 | 1009.0 |
| 20260504173519 | 22 | 284 | 14.5 | 17.7 | 0.00 | 0.00 | 0.00 | 55 | 1008.8 |
| 20260504173017 | 22 | 297 | 19.3 | 25.7 | 0.00 | 0.00 | 0.00 | 54 | 1009.1 |
| 20260504172513 | 23 | 250 | 6.4 | 16.1 | 0.00 | 0.00 | 0.00 | 55 | 1009.2 |
| 20260504172009 | 23 | 289 | 14.5 | 17.7 | 0.00 | 0.00 | 0.00 | 55 | 1009.4 |
| 20260504171506 | 23 | 308 | 14.5 | 20.9 | 0.00 | 0.00 | 0.00 | 57 | 1009.5 |
| 20260504171003 | 23 | 315 | 9.7 | 12.9 | 0.00 | 0.00 | 0.00 | 55 | 1009.5 |
| 20260504170500 | 23 | 286 | 11.3 | 22.5 | 0.00 | 0.00 | 0.00 | 56 | 1009.8 |
| 20260504160419 | 23 | 290 | 17.7 | 33.8 | 0.00 | 0.00 | 0.00 | 57 | 1010.4 |
| 20260504150843 | 21 | 279 | 17.7 | 25.7 | 0.00 | 0.00 | 0.00 | 63 | 1010.2 |
| 20260504150340 | 21 | 317 | 19.3 | 29.0 | 0.00 | 0.00 | 0.00 | 64 | 1010.1 |
| 20260504141310 | 19 | 289 | 12.9 | 24.1 | 0.00 | 0.00 | 0.00 | 69 | 1010.7 |
| 20260504140806 | 18 | 310 | 12.9 | 20.9 | 0.00 | 0.00 | 0.00 | 72 | 1011.0 |
| 20260504140302 | 18 | 274 | 12.9 | 20.9 | 0.00 | 0.00 | 0.00 | 71 | 1011.0 |
| 20260504130731 | 17 | 248 | 11.3 | 14.5 | 0.00 | 0.00 | 0.00 | 75 | 1011.5 |
| 20260504130226 | 16 | 279 | 11.3 | 12.9 | 0.00 | 0.00 | 0.00 | 76 | 1011.3 |
| 20260504120151 | 15 | 205 | 4.8 | 4.8 | 0.00 | 0.00 | 0.00 | 77 | 1011.5 |
| 20260504110618 | 15 | 191 | 1.6 | 3.2 | 0.00 | 0.00 | 0.00 | 76 | 1011.3 |
| 20260504110114 | 16 | 193 | 1.6 | 3.2 | 0.00 | 0.00 | 0.00 | 76 | 1011.1 |